Portada
METAR-TAF:

METAR-TAF

Aeroports :

Dawadmi, Aràbia Saudita

latitud: 24-26-59N, longitud: 044-07-16E, altitud: 922 m

Observació

L'informe es va fer fa 58 minuts, a les 20:00 UTC
Vent 3 kt del Nord-Est
Temperatura 20°C
Humitat 88%
Pressió 1018 hPa
Visibilitat: 9000 m
Núvols disperses a una alçada de 4000 ft
Cel ennuvolat a una alçada de 10000 ft
pluja

METAR: OEDM 042000Z 04003KT 9000 -RA SCT040 BKN100 20/18 Q1018

Hora: 23:58 (20:58 UTC)

Pronòstic

L'informe es va fer fa 15 hores i 58 minuts, a les 05:00 UTC
Pronòstic vàlid del 04 a les 06 UTC al 04 a les 20 UTC
Vent 15 kt del Sud
Visibilitat: 7000 m
Núvols disperses a una alçada de 4000 ft
Núvols disperses a una alçada de 10000 ft
Temporalment
l' 04 a les 14 UTC al 04 a les 20 UTC
Escasses núvols a una alçada de 3000 ft, Cumulonimbus.
Cel ennuvolat a una alçada de 4000 ft
tempesta, pluja

TAF: OEDM 040500Z 0406/0420 19015KT 7000 SCT040 SCT100 TEMPO 0414/0420 TSRA FEW030CB BKN040

Observacions i pronòstics meteorològics de més de 4000 aeroports (METAR i TAF).

Les estacions disponibles són els punts grocs i vermells al mapa.

Posi el ratolí al punt desitjat per veure el nom de l'estació.

Feu clic per veure les observacions i els pronòstics meteorològics.

Per canviar el mapa: feu clic els botons verds amb una creu de color negre per apropar; al botó verd amb un guió per allunyar la imatge; o en les fletxes verdes per a mapes adjacents.


METAR-TAF: